Airfield :
LOGIN :

Register | Disclaimer

   EN    FR    IT 

 










Legend :    VFR   Marginal VFR   IFR   Intensive IFR   Very Intensive IFR
Visi :
Ceiling :
>= 8 km
>= 3000ft
5 to 8 km
1000 to 3000 ft
1500m to 5 km
500 to 1000 ft
800 to 1500m
200 to 500 ft
< 800m
< 200 ft
Symbols :   Thunderstorms  Fog  Heavy snow  Heavy precipitations  Wind > 20 kt
SIGMETs :     Misc.  Thunderstorms  Icing  Turbulence  Mountain Waves  Volcanic Ashes







- Airport Elevation : 18 ft
- IATA code : AJA
- Download approach charts


LFKJ - Ajaccio

CURRENT METAR :
  • 220400Z 04006KT CAVOK 11/09 Q1020 NOSIG

EXPIRED METARs :
  • 220330Z AUTO 04006KT CAVOK 11/09 Q1020 NOSIG
  • 220300Z AUTO 05006KT CAVOK 12/09 Q1020 NOSIG
  • 220230Z AUTO 05005KT CAVOK 12/09 Q1020 NOSIG
  • 220200Z AUTO 04005KT CAVOK 13/10 Q1020 NOSIG
  • 220130Z AUTO 04005KT CAVOK 13/10 Q1020 NOSIG

TAF TAF LFKJ
Valid from the 22 at 03:00 until the 23 at 03:00 UTC


220200Z 2203/2303 06006KT CAVOK
TEMPO 2209/2215 24010KT
ATIS : +33 4 95 23 59 85
No reported NOTAMs for that airfield.



MET'MAP, your aeronautical weather chart ! - Copyright ORBIFLY December 2007 - Disclaimer

ORBIFLY MET'MAP TEAM :

Programming & Development : Alexandra Zaïnal
Concept & Development : Baudouin d'Aumeries
Co-Development & Prog : Marc-Olivier Méhu
Technical & hardware support : Manuel Goepfert

Contact : metmap@orbifly.com




SOURCES & CREDITS :

   NOAA